Time;durP1;ratioP1;P1;durP2;ratioP2;P2;SDS_P1;SDS_P2;PMS_P1;PMS_P2;Temp;Humidity;BMP_temperature;BMP_pressure;BME280_temperature;BME280_humidity;BME280_pressure;Samples;Min_cycle;Max_cycle;Signal;HPM_P1;HPM_P2
2023/05/11 00:00:33;;;;;;;5.23;4.83;;;13.10;99.90;;;;;;5035148;28;20176;-81
2023/05/11 00:02:58;;;;;;;5.40;4.90;;;13.00;99.90;;;;;;5046599;28;20182;-80
2023/05/11 00:05:24;;;;;;;5.33;4.93;;;13.00;99.90;;;;;;5034013;28;20184;-81
2023/05/11 00:07:50;;;;;;;5.80;4.73;;;13.00;99.90;;;;;;5033254;28;20222;-81
2023/05/11 00:10:15;;;;;;;5.10;4.70;;;13.00;99.90;;;;;;5032942;28;20707;-81
2023/05/11 00:12:41;;;;;;;4.67;4.37;;;13.00;99.90;;;;;;5033456;28;20267;-82
2023/05/11 00:15:08;;;;;;;5.50;5.00;;;13.00;99.90;;;;;;5033504;28;20231;-83
2023/05/11 00:17:34;;;;;;;5.60;5.20;;;13.00;99.90;;;;;;5042248;28;20176;-82
2023/05/11 00:20:00;;;;;;;5.33;4.97;;;13.00;99.90;;;;;;5034567;28;20183;-82
2023/05/11 00:22:26;;;;;;;5.13;4.73;;;13.00;99.90;;;;;;5032512;28;20620;-82
2023/05/11 00:24:51;;;;;;;5.87;5.40;;;13.00;99.90;;;;;;5033780;28;20234;-82
2023/05/11 00:27:17;;;;;;;5.57;5.10;;;13.00;99.90;;;;;;5036204;28;20164;-82
2023/05/11 00:29:43;;;;;;;4.97;4.67;;;13.00;99.90;;;;;;5035258;28;20888;-82
2023/05/11 00:32:09;;;;;;;5.67;5.17;;;13.00;99.90;;;;;;5032435;28;20180;-81
2023/05/11 00:34:37;;;;;;;5.27;4.97;;;13.00;99.90;;;;;;5033886;28;20865;-82
2023/05/11 00:37:03;;;;;;;5.53;5.13;;;12.90;99.90;;;;;;5035105;28;20168;-81
2023/05/11 00:39:28;;;;;;;5.67;5.17;;;12.90;99.90;;;;;;5035170;28;20181;-82
2023/05/11 00:41:54;;;;;;;6.47;5.47;;;12.90;99.90;;;;;;5038172;28;20190;-82
2023/05/11 00:44:20;;;;;;;5.23;4.90;;;12.90;99.90;;;;;;5046127;28;20168;-80
2023/05/11 00:46:46;;;;;;;5.37;4.97;;;12.90;99.90;;;;;;5046358;28;20275;-82
2023/05/11 00:49:16;;;;;;;5.30;4.93;;;12.80;99.90;;;;;;5033396;28;20224;-82
2023/05/11 00:51:42;;;;;;;5.80;5.40;;;12.70;99.90;;;;;;5032826;28;20176;-82
2023/05/11 00:54:14;;;;;;;4.93;4.63;;;12.70;99.90;;;;;;5032213;28;20241;-82
2023/05/11 00:56:41;;;;;;;5.80;5.40;;;12.70;99.90;;;;;;5032897;28;20583;-81
2023/05/11 00:59:07;;;;;;;5.40;4.90;;;12.80;99.90;;;;;;5031026;28;20184;-82
2023/05/11 01:01:34;;;;;;;5.30;5.00;;;12.70;99.90;;;;;;5032283;28;20194;-81
2023/05/11 01:04:02;;;;;;;5.43;5.03;;;12.70;99.90;;;;;;5030879;28;20214;-82
2023/05/11 01:06:34;;;;;;;5.77;5.37;;;12.80;99.90;;;;;;5030876;28;20228;-81
2023/05/11 01:09:14;;;;;;;5.93;5.33;;;12.80;99.90;;;;;;5031051;28;20655;-80
2023/05/11 01:11:58;;;;;;;5.33;4.80;;;12.80;99.90;;;;;;5032533;28;20164;-81
2023/05/11 01:14:54;;;;;;;5.50;5.03;;;12.80;99.90;;;;;;5031237;28;20207;-82
2023/05/11 01:17:35;;;;;;;4.87;4.47;;;12.80;99.90;;;;;;5033348;28;20184;-81
2023/05/11 01:20:15;;;;;;;4.83;4.53;;;12.80;99.90;;;;;;5034625;28;20171;-83
2023/05/11 01:22:55;;;;;;;5.20;4.80;;;12.90;99.90;;;;;;5038472;28;20153;-82
2023/05/11 01:25:48;;;;;;;4.87;4.47;;;12.70;99.90;;;;;;5037236;28;20180;-83
2023/05/11 01:28:51;;;;;;;4.37;4.07;;;12.70;99.90;;;;;;5011574;28;20189;-82
2023/05/11 01:31:19;;;;;;;4.23;4.00;;;12.70;99.90;;;;;;5032276;28;20189;-81
2023/05/11 01:33:58;;;;;;;4.53;4.10;;;12.70;99.90;;;;;;5032064;28;20196;-81
2023/05/11 01:36:28;;;;;;;3.93;3.73;;;12.70;99.90;;;;;;5032515;28;20243;-81
2023/05/11 01:38:59;;;;;;;4.00;3.70;;;12.70;99.90;;;;;;5032081;28;20593;-81
2023/05/11 01:41:27;;;;;;;4.30;4.00;;;12.70;99.90;;;;;;5032388;28;20153;-84
2023/05/11 01:43:57;;;;;;;3.63;3.43;;;12.70;99.90;;;;;;5031013;28;20185;-84
2023/05/11 01:46:26;;;;;;;3.47;3.27;;;12.70;99.90;;;;;;5032356;28;20169;-82
2023/05/11 01:48:55;;;;;;;3.60;3.37;;;12.70;99.90;;;;;;5031814;28;20177;-82
2023/05/11 01:51:23;;;;;;;3.97;3.77;;;12.70;99.90;;;;;;5035572;28;20203;-82
2023/05/11 01:53:50;;;;;;;3.80;3.50;;;12.70;99.90;;;;;;5032734;28;20210;-81
2023/05/11 01:56:18;;;;;;;4.20;3.73;;;12.70;99.90;;;;;;5032323;28;20253;-81
2023/05/11 01:58:45;;;;;;;3.37;3.23;;;12.70;99.90;;;;;;5033027;28;20169;-81
2023/05/11 02:01:13;;;;;;;4.20;3.50;;;12.70;99.90;;;;;;5036163;28;20266;-81
2023/05/11 02:03:40;;;;;;;3.80;3.60;;;12.70;99.90;;;;;;5038980;28;20180;-81
2023/05/11 02:06:08;;;;;;;3.97;3.67;;;12.80;99.90;;;;;;5036249;28;20238;-81
2023/05/11 02:08:37;;;;;;;3.73;3.50;;;12.90;99.90;;;;;;5038764;28;20284;-83
2023/05/11 02:11:05;;;;;;;3.80;3.47;;;12.80;99.90;;;;;;5043576;28;20199;-81
2023/05/11 02:13:33;;;;;;;3.33;3.13;;;12.90;99.90;;;;;;5045752;28;20279;-83
2023/05/11 02:16:00;;;;;;;3.20;3.00;;;12.80;99.90;;;;;;5036944;28;20238;-82
2023/05/11 02:18:28;;;;;;;3.77;3.50;;;12.80;99.90;;;;;;5035973;28;20182;-82
2023/05/11 02:20:55;;;;;;;3.13;2.97;;;12.70;99.90;;;;;;5035546;28;20169;-82
2023/05/11 02:23:23;;;;;;;3.70;3.50;;;12.80;99.90;;;;;;5035373;28;20179;-81
2023/05/11 02:25:51;;;;;;;3.87;3.20;;;12.80;99.90;;;;;;5035344;28;20177;-82
2023/05/11 02:28:18;;;;;;;3.50;3.30;;;12.80;99.90;;;;;;5034059;28;20184;-82
2023/05/11 02:30:51;;;;;;;3.77;3.57;;;12.80;99.90;;;;;;5035069;28;20177;-82
2023/05/11 02:33:24;;;;;;;3.37;3.10;;;12.80;99.90;;;;;;5034969;28;20208;-83
2023/05/11 02:35:52;;;;;;;3.80;3.03;;;12.80;99.90;;;;;;5035191;28;20174;-81
2023/05/11 02:38:19;;;;;;;3.50;3.30;;;12.80;99.90;;;;;;5036663;28;20654;-81
2023/05/11 02:40:50;;;;;;;3.40;3.30;;;12.70;99.90;;;;;;5036315;28;20587;-83
2023/05/11 02:43:22;;;;;;;2.80;2.70;;;12.70;99.90;;;;;;5038086;28;20153;-82
2023/05/11 02:45:51;;;;;;;3.00;2.80;;;12.70;99.90;;;;;;5041518;28;20516;-83
2023/05/11 02:48:27;;;;;;;3.70;3.27;;;12.80;99.90;;;;;;5036137;28;20196;-82
2023/05/11 02:50:55;;;;;;;3.83;3.47;;;12.80;99.90;;;;;;5035417;28;20176;-82
2023/05/11 02:53:25;;;;;;;4.37;2.93;;;12.80;99.90;;;;;;5035549;28;20203;-82
2023/05/11 02:55:53;;;;;;;2.90;2.80;;;12.80;99.90;;;;;;5035269;28;20173;-81
2023/05/11 02:58:19;;;;;;;3.20;3.00;;;12.80;99.90;;;;;;5034898;28;20263;-81
2023/05/11 03:00:45;;;;;;;3.10;2.90;;;12.80;99.90;;;;;;5035194;28;20184;-80
2023/05/11 03:03:11;;;;;;;3.23;3.00;;;12.80;99.90;;;;;;5035580;28;20541;-81
2023/05/11 03:05:37;;;;;;;3.50;3.20;;;12.80;99.90;;;;;;5035416;28;20167;-81
2023/05/11 03:08:04;;;;;;;5.83;2.90;;;12.80;99.90;;;;;;5036113;28;20234;-84
2023/05/11 03:10:31;;;;;;;3.13;2.93;;;12.80;99.90;;;;;;5035793;28;20164;-80
2023/05/11 03:12:57;;;;;;;3.27;3.07;;;12.80;99.90;;;;;;5035231;28;20176;-81
2023/05/11 03:15:24;;;;;;;3.40;3.20;;;12.80;99.90;;;;;;5035118;28;20200;-82
2023/05/11 03:17:51;;;;;;;3.13;2.93;;;12.80;99.90;;;;;;5035162;28;20165;-82
2023/05/11 03:20:19;;;;;;;3.57;3.20;;;12.70;99.90;;;;;;5033863;28;20180;-81
2023/05/11 03:22:46;;;;;;;3.37;2.83;;;12.80;99.90;;;;;;5035026;28;20571;-81
2023/05/11 03:25:13;;;;;;;3.30;3.10;;;12.80;99.90;;;;;;5038223;28;20179;-81
2023/05/11 03:27:41;;;;;;;3.27;2.60;;;12.80;99.90;;;;;;5039305;28;20226;-81
2023/05/11 03:30:10;;;;;;;3.00;2.80;;;12.70;99.90;;;;;;5036995;28;20161;-82
2023/05/11 03:32:36;;;;;;;3.20;3.00;;;12.70;99.90;;;;;;5041748;28;20185;-80
2023/05/11 03:35:01;;;;;;;3.13;2.93;;;12.80;99.90;;;;;;5040918;28;20311;-81
2023/05/11 03:37:30;;;;;;;3.33;3.03;;;12.80;99.90;;;;;;5044057;28;20540;-81
2023/05/11 03:39:58;;;;;;;4.20;3.33;;;12.70;99.90;;;;;;5035624;28;20226;-83
2023/05/11 03:42:25;;;;;;;2.87;2.70;;;12.80;99.90;;;;;;5034461;28;20181;-82
2023/05/11 03:44:57;;;;;;;3.80;2.83;;;12.80;99.90;;;;;;5035598;28;20168;-81
2023/05/11 03:47:27;;;;;;;3.77;3.10;;;12.70;99.90;;;;;;5034774;28;20173;-82
2023/05/11 03:49:55;;;;;;;3.10;2.90;;;12.70;99.90;;;;;;5037051;28;20207;-82
2023/05/11 03:52:22;;;;;;;3.63;2.60;;;12.70;99.90;;;;;;5034074;28;20168;-84
2023/05/11 03:54:48;;;;;;;3.00;2.80;;;12.70;99.90;;;;;;5034471;28;20778;-83
2023/05/11 03:57:14;;;;;;;3.03;2.83;;;12.70;99.90;;;;;;5034435;28;20207;-81
2023/05/11 03:59:41;;;;;;;4.03;2.80;;;12.80;99.90;;;;;;5036000;28;20189;-82
2023/05/11 04:02:07;;;;;;;3.07;2.87;;;12.80;99.90;;;;;;5041541;28;20179;-81
2023/05/11 04:04:33;;;;;;;2.97;2.80;;;12.80;99.90;;;;;;5039983;28;20177;-81
2023/05/11 04:06:59;;;;;;;3.10;2.90;;;12.80;99.90;;;;;;5036640;28;20693;-81
2023/05/11 04:09:26;;;;;;;3.23;2.93;;;12.80;99.90;;;;;;5034598;28;20181;-83
2023/05/11 04:11:51;;;;;;;2.90;2.70;;;12.80;99.90;;;;;;5034534;28;20187;-82
2023/05/11 04:14:17;;;;;;;2.70;2.60;;;12.80;99.90;;;;;;5034766;28;20671;-81
2023/05/11 04:16:44;;;;;;;3.37;3.10;;;12.70;99.90;;;;;;5034330;28;20168;-82
2023/05/11 04:19:10;;;;;;;3.00;2.80;;;12.80;99.90;;;;;;5033387;28;20184;-82
2023/05/11 04:21:35;;;;;;;4.40;3.00;;;12.80;99.90;;;;;;5032773;28;20287;-82
2023/05/11 04:24:02;;;;;;;3.77;3.00;;;12.80;99.90;;;;;;5034273;28;20183;-81
2023/05/11 04:26:28;;;;;;;3.03;2.83;;;12.70;99.90;;;;;;5032378;28;20181;-83
2023/05/11 04:28:53;;;;;;;3.50;2.90;;;12.80;99.90;;;;;;5033815;28;20176;-82
2023/05/11 04:31:19;;;;;;;3.50;3.00;;;12.80;99.90;;;;;;5034218;28;20177;-81
2023/05/11 04:33:45;;;;;;;3.27;2.97;;;12.80;99.90;;;;;;5034083;28;20211;-82
2023/05/11 04:36:11;;;;;;;2.70;2.60;;;12.90;99.90;;;;;;5033731;28;20310;-81
2023/05/11 04:38:37;;;;;;;3.07;2.87;;;12.90;99.90;;;;;;5034215;28;20198;-82
2023/05/11 04:41:07;;;;;;;3.00;2.80;;;12.80;99.90;;;;;;5033974;28;20636;-82
2023/05/11 04:43:33;;;;;;;3.03;2.60;;;12.80;99.90;;;;;;5034366;28;20169;-81
2023/05/11 04:45:59;;;;;;;4.20;3.03;;;12.90;99.90;;;;;;5033965;28;20164;-81
2023/05/11 04:48:25;;;;;;;3.70;2.90;;;12.90;99.90;;;;;;5034154;28;20267;-80
2023/05/11 04:50:52;;;;;;;3.43;2.87;;;12.90;99.90;;;;;;5034524;28;20275;-81
2023/05/11 04:53:18;;;;;;;3.37;2.70;;;12.80;99.90;;;;;;5035031;28;20206;-82
2023/05/11 04:55:44;;;;;;;2.70;2.50;;;12.80;99.90;;;;;;5035122;28;20707;-81
2023/05/11 04:58:10;;;;;;;2.70;2.60;;;12.90;99.90;;;;;;5039200;28;20173;-81
2023/05/11 05:00:35;;;;;;;2.60;2.40;;;12.90;99.90;;;;;;5046107;28;20210;-79
2023/05/11 05:03:01;;;;;;;2.90;2.70;;;12.90;99.90;;;;;;5040690;28;20522;-81
2023/05/11 05:05:28;;;;;;;3.07;2.87;;;12.90;99.90;;;;;;5033031;28;20193;-82
2023/05/11 05:07:53;;;;;;;3.00;2.70;;;12.90;99.90;;;;;;5033506;28;20171;-83
2023/05/11 05:10:20;;;;;;;3.10;2.90;;;12.90;99.90;;;;;;5034825;28;20177;-82
2023/05/11 05:12:47;;;;;;;2.63;2.50;;;13.00;99.90;;;;;;5039021;28;20204;-81
2023/05/11 05:15:12;;;;;;;2.97;2.77;;;13.10;99.90;;;;;;5033252;28;20308;-81
2023/05/11 05:17:38;;;;;;;2.83;2.73;;;13.10;99.90;;;;;;5030236;28;20271;-81
2023/05/11 05:20:05;;;;;;;2.90;2.70;;;13.10;99.90;;;;;;5032106;28;20183;-82
2023/05/11 05:22:31;;;;;;;2.77;2.60;;;13.00;99.90;;;;;;5031820;28;20207;-82
2023/05/11 05:24:57;;;;;;;3.27;2.67;;;13.10;99.90;;;;;;5034724;28;20208;-82
2023/05/11 05:27:23;;;;;;;2.20;2.10;;;13.10;99.90;;;;;;5039291;28;20181;-82
2023/05/11 05:29:49;;;;;;;3.23;3.00;;;13.10;99.90;;;;;;5034999;28;20636;-81
2023/05/11 05:32:14;;;;;;;3.27;2.70;;;13.10;99.90;;;;;;5035714;28;20188;-82
2023/05/11 05:34:40;;;;;;;3.03;2.83;;;13.10;99.90;;;;;;5032943;28;20206;-83
2023/05/11 05:37:06;;;;;;;4.60;3.03;;;13.30;99.90;;;;;;5030951;28;20181;-82
2023/05/11 05:39:32;;;;;;;2.80;2.60;;;13.20;99.90;;;;;;5032304;28;20641;-84
2023/05/11 05:41:57;;;;;;;3.33;2.60;;;13.30;99.90;;;;;;5032531;28;20165;-82
2023/05/11 05:44:23;;;;;;;2.93;2.80;;;13.30;99.90;;;;;;5032644;28;20184;-83
2023/05/11 05:46:49;;;;;;;2.33;2.23;;;13.40;99.90;;;;;;5032409;28;20168;-80
2023/05/11 05:49:15;;;;;;;2.50;2.30;;;13.40;99.90;;;;;;5034623;28;20238;-82
2023/05/11 05:51:41;;;;;;;2.93;2.73;;;13.40;99.90;;;;;;5034696;28;20628;-82
2023/05/11 05:54:06;;;;;;;2.80;2.60;;;13.30;99.90;;;;;;5036037;28;20270;-82
2023/05/11 05:56:33;;;;;;;3.40;2.50;;;13.40;99.90;;;;;;5035300;28;20583;-81
2023/05/11 05:59:00;;;;;;;4.53;2.87;;;13.40;99.90;;;;;;5036914;28;20264;-82
2023/05/11 06:01:26;;;;;;;3.10;2.60;;;13.40;99.90;;;;;;5035070;28;20195;-82
2023/05/11 06:03:52;;;;;;;2.60;2.40;;;13.40;99.90;;;;;;5037112;28;20640;-82
2023/05/11 06:06:18;;;;;;;3.00;2.80;;;13.40;99.90;;;;;;5036395;28;20263;-81
2023/05/11 06:08:43;;;;;;;2.87;2.77;;;13.40;99.90;;;;;;5036561;28;20173;-82
2023/05/11 06:11:09;;;;;;;3.13;2.93;;;13.40;99.90;;;;;;5035997;28;20173;-81
2023/05/11 06:13:35;;;;;;;5.10;2.80;;;13.40;99.90;;;;;;5036684;28;20208;-84
2023/05/11 06:16:04;;;;;;;3.60;2.73;;;13.40;99.90;;;;;;5037228;28;20222;-83
2023/05/11 06:18:30;;;;;;;3.77;3.00;;;13.40;99.90;;;;;;5037588;28;20175;-82
2023/05/11 06:20:58;;;;;;;2.70;2.50;;;13.40;99.90;;;;;;5038340;28;20192;-83
2023/05/11 06:23:24;;;;;;;4.83;3.00;;;13.40;99.90;;;;;;5043698;28;20176;-81
2023/05/11 06:25:50;;;;;;;3.57;3.00;;;13.50;99.90;;;;;;5044999;28;20644;-80
2023/05/11 06:28:15;;;;;;;2.67;2.47;;;13.50;99.90;;;;;;5044102;28;20230;-82
2023/05/11 06:30:42;;;;;;;3.47;2.90;;;13.50;99.90;;;;;;5036572;28;20173;-83
2023/05/11 06:33:07;;;;;;;3.80;3.37;;;13.50;99.90;;;;;;5034757;28;20184;-81
2023/05/11 06:35:36;;;;;;;3.23;2.87;;;13.50;99.90;;;;;;5039793;28;20195;-81
2023/05/11 06:38:02;;;;;;;3.20;2.90;;;13.50;99.90;;;;;;5034805;28;20176;-82
2023/05/11 06:40:28;;;;;;;4.30;2.83;;;13.50;99.90;;;;;;5035666;28;20200;-82
2023/05/11 06:42:54;;;;;;;4.60;2.90;;;13.50;99.90;;;;;;5035075;28;20208;-83
2023/05/11 06:45:20;;;;;;;3.53;3.23;;;13.50;99.90;;;;;;5037940;28;20177;-82
2023/05/11 06:47:46;;;;;;;3.00;2.70;;;13.40;99.90;;;;;;5045359;28;20642;-82
2023/05/11 06:50:12;;;;;;;6.10;3.10;;;13.40;99.90;;;;;;5037826;28;20176;-84
2023/05/11 06:52:38;;;;;;;3.17;2.97;;;13.50;99.90;;;;;;5035274;28;20525;-82
2023/05/11 06:55:04;;;;;;;3.23;2.93;;;13.50;99.90;;;;;;5033503;28;20687;-81
2023/05/11 06:57:30;;;;;;;5.07;2.63;;;13.40;99.90;;;;;;5035138;28;20644;-83
2023/05/11 06:59:56;;;;;;;4.77;3.10;;;13.30;99.90;;;;;;5034679;28;20203;-83
2023/05/11 07:02:22;;;;;;;3.17;2.97;;;13.30;99.90;;;;;;5034389;28;20256;-82
2023/05/11 07:04:51;;;;;;;3.60;3.10;;;13.30;99.90;;;;;;5034764;28;20259;-80
2023/05/11 07:07:17;;;;;;;2.80;2.60;;;13.40;99.90;;;;;;5033140;28;20224;-84
2023/05/11 07:09:43;;;;;;;2.97;2.80;;;13.30;99.90;;;;;;5035246;28;20180;-81
2023/05/11 07:12:08;;;;;;;3.03;2.83;;;13.40;99.90;;;;;;5038744;28;20624;-82
2023/05/11 07:14:34;;;;;;;3.33;3.13;;;13.30;99.90;;;;;;5035059;28;20245;-83
2023/05/11 07:17:00;;;;;;;2.90;2.70;;;13.40;99.90;;;;;;5035555;28;20195;-81
2023/05/11 07:19:26;;;;;;;5.47;3.27;;;13.30;99.90;;;;;;5035191;28;20180;-81
2023/05/11 07:21:51;;;;;;;3.30;3.10;;;13.40;99.90;;;;;;5034745;28;20599;-81
2023/05/11 07:24:17;;;;;;;3.00;2.87;;;13.40;99.90;;;;;;5033233;28;20493;-82
2023/05/11 07:26:43;;;;;;;3.17;2.97;;;13.40;99.90;;;;;;5034921;28;20165;-82
2023/05/11 07:29:09;;;;;;;3.20;2.90;;;13.30;99.90;;;;;;5034697;28;20173;-82
2023/05/11 07:31:35;;;;;;;3.60;3.00;;;13.40;99.90;;;;;;5035056;28;20169;-80
2023/05/11 07:34:01;;;;;;;3.67;3.30;;;13.40;99.90;;;;;;5033562;28;20236;-81
2023/05/11 07:36:27;;;;;;;3.40;3.10;;;13.40;99.90;;;;;;5033880;28;20177;-82
2023/05/11 07:38:52;;;;;;;3.50;3.20;;;13.40;99.90;;;;;;5034838;28;20231;-81
2023/05/11 07:41:20;;;;;;;3.37;3.17;;;13.50;99.90;;;;;;5035002;28;20175;-82
2023/05/11 07:43:45;;;;;;;3.97;2.90;;;13.60;99.90;;;;;;5034506;28;20185;-81
2023/05/11 07:46:11;;;;;;;3.17;2.97;;;13.50;99.90;;;;;;5036133;28;20180;-80
2023/05/11 07:48:37;;;;;;;3.53;3.33;;;13.50;99.90;;;;;;5035399;28;20537;-80
2023/05/11 07:51:03;;;;;;;3.80;3.47;;;13.40;99.90;;;;;;5043996;28;20176;-82
2023/05/11 07:53:28;;;;;;;5.20;3.30;;;13.30;99.90;;;;;;5040098;28;20254;-81
2023/05/11 07:55:55;;;;;;;3.07;2.83;;;13.30;99.90;;;;;;5036434;28;20169;-81
2023/05/11 07:58:20;;;;;;;3.73;3.43;;;13.40;99.90;;;;;;5034764;28;20263;-80
2023/05/11 08:00:46;;;;;;;3.50;3.20;;;13.60;99.90;;;;;;5032273;28;20293;-83
2023/05/11 08:03:13;;;;;;;5.67;3.30;;;13.50;99.90;;;;;;5031923;28;20548;-82
2023/05/11 08:05:38;;;;;;;4.50;3.30;;;13.60;99.90;;;;;;5034878;28;20172;-82
2023/05/11 08:08:04;;;;;;;3.00;2.80;;;13.50;99.90;;;;;;5038170;28;20180;-81
2023/05/11 08:10:31;;;;;;;3.73;3.47;;;13.50;99.90;;;;;;5037748;28;20172;-82
2023/05/11 08:12:57;;;;;;;3.27;3.07;;;13.50;99.90;;;;;;5032709;28;20188;-82
2023/05/11 08:15:23;;;;;;;3.20;3.10;;;13.40;99.90;;;;;;5032371;28;20273;-81
2023/05/11 08:17:49;;;;;;;3.60;3.27;;;13.40;99.90;;;;;;5033213;28;20628;-82
2023/05/11 08:20:15;;;;;;;6.13;3.37;;;13.40;99.90;;;;;;5034395;28;20198;-80
2023/05/11 08:22:41;;;;;;;3.97;3.60;;;13.20;99.90;;;;;;5033823;28;20235;-81
2023/05/11 08:25:07;;;;;;;3.70;3.43;;;13.20;99.90;;;;;;5032442;28;20551;-80
2023/05/11 08:27:33;;;;;;;3.73;3.43;;;13.20;99.90;;;;;;5033279;28;20227;-81
2023/05/11 08:29:58;;;;;;;2.87;2.67;;;13.10;99.90;;;;;;5033100;28;20184;-81
2023/05/11 08:32:25;;;;;;;3.47;3.27;;;12.90;99.90;;;;;;5032879;28;20690;-83
2023/05/11 08:34:51;;;;;;;3.60;3.30;;;13.00;99.90;;;;;;5032880;28;20672;-81
2023/05/11 08:37:17;;;;;;;4.37;3.70;;;12.90;99.90;;;;;;5032999;28;20182;-81
2023/05/11 08:39:43;;;;;;;3.87;3.20;;;12.90;99.90;;;;;;5032916;28;20180;-81
2023/05/11 08:42:12;;;;;;;6.50;3.47;;;12.90;99.90;;;;;;5033248;28;20256;-83
2023/05/11 08:44:41;;;;;;;4.40;4.00;;;12.90;99.90;;;;;;5031835;28;20212;-82
2023/05/11 08:47:08;;;;;;;3.70;3.30;;;12.90;99.90;;;;;;5033142;28;20180;-82
2023/05/11 08:49:35;;;;;;;4.07;3.77;;;12.90;99.90;;;;;;5033946;28;20180;-81
2023/05/11 08:52:04;;;;;;;3.90;3.60;;;13.00;99.90;;;;;;5038078;28;20169;-81
2023/05/11 08:54:30;;;;;;;4.03;3.73;;;12.90;99.90;;;;;;5033549;28;20265;-80
2023/05/11 08:56:57;;;;;;;3.77;3.47;;;13.00;99.90;;;;;;5033390;28;20180;-82
2023/05/11 08:59:26;;;;;;;3.50;3.20;;;13.00;99.90;;;;;;5032822;28;20229;-82
2023/05/11 09:01:54;;;;;;;3.73;3.43;;;13.10;99.90;;;;;;5031613;28;20822;-83
2023/05/11 09:04:23;;;;;;;3.77;3.47;;;13.10;99.90;;;;;;5031599;28;20177;-80
2023/05/11 09:06:49;;;;;;;3.57;3.27;;;13.10;99.90;;;;;;5033782;28;20228;-83
2023/05/11 09:09:17;;;;;;;4.10;3.80;;;13.20;99.90;;;;;;5032885;28;20175;-82
2023/05/11 09:11:44;;;;;;;3.60;3.30;;;13.30;99.90;;;;;;5035015;28;20741;-81
2023/05/11 09:14:11;;;;;;;3.73;3.43;;;13.20;99.90;;;;;;5036721;28;20599;-80
2023/05/11 09:16:37;;;;;;;4.30;4.00;;;13.20;99.90;;;;;;5045487;28;20172;-82
2023/05/11 09:19:04;;;;;;;4.27;3.87;;;13.20;99.90;;;;;;5045006;28;20179;-80
2023/05/11 09:21:31;;;;;;;3.83;3.63;;;13.20;99.90;;;;;;5035353;28;20200;-82
2023/05/11 09:24:00;;;;;;;4.00;3.70;;;13.20;99.90;;;;;;5036565;28;20184;-81
2023/05/11 09:26:29;;;;;;;3.93;3.63;;;13.20;99.90;;;;;;5036941;28;20177;-81
2023/05/11 09:28:58;;;;;;;4.10;3.80;;;13.20;99.90;;;;;;5043110;28;20226;-80
2023/05/11 09:31:34;;;;;;;3.57;3.37;;;13.20;99.90;;;;;;5042172;28;20250;-82
2023/05/11 09:34:18;;;;;;;5.27;3.93;;;13.10;99.90;;;;;;5038822;28;20671;-82
2023/05/11 09:36:45;;;;;;;6.83;4.07;;;13.10;99.90;;;;;;5036403;28;20272;-81
2023/05/11 09:39:12;;;;;;;4.20;3.90;;;13.10;99.90;;;;;;5038624;28;20168;-83
2023/05/11 09:41:38;;;;;;;4.00;3.70;;;13.10;99.90;;;;;;5037925;28;20180;-81
2023/05/11 09:44:09;;;;;;;5.17;3.97;;;13.10;99.90;;;;;;5040135;28;20548;-81
2023/05/11 09:46:36;;;;;;;4.03;3.73;;;13.10;99.90;;;;;;5037466;28;20246;-80
2023/05/11 09:49:02;;;;;;;4.40;4.10;;;13.10;99.90;;;;;;5035028;28;20176;-81
2023/05/11 09:51:33;;;;;;;5.37;4.17;;;13.00;99.90;;;;;;5034434;28;20660;-80
2023/05/11 09:54:01;;;;;;;4.70;4.30;;;13.10;99.90;;;;;;5035781;28;20234;-83
2023/05/11 09:56:51;;;;;;;4.53;4.13;;;13.00;99.90;;;;;;5038061;28;20161;-82
2023/05/11 09:59:36;;;;;;;4.57;4.20;;;13.10;99.90;;;;;;5036504;28;20172;-82
2023/05/11 10:02:22;;;;;;;6.53;4.40;;;13.10;99.90;;;;;;5034566;28;20218;-80
2023/05/11 10:04:50;;;;;;;4.73;4.33;;;13.00;99.90;;;;;;5035783;28;20186;-78
2023/05/11 10:07:29;;;;;;;4.77;4.33;;;13.00;99.90;;;;;;5035281;28;20232;-79
2023/05/11 10:10:00;;;;;;;7.07;4.47;;;13.00;99.90;;;;;;5035911;28;20539;-83
2023/05/11 10:12:27;;;;;;;4.70;4.30;;;13.00;99.90;;;;;;5034110;28;20701;-82
2023/05/11 10:15:06;;;;;;;4.70;4.20;;;13.10;99.90;;;;;;5035437;28;20282;-83
2023/05/11 10:17:33;;;;;;;4.90;4.40;;;13.00;99.90;;;;;;5034357;28;20176;-80
2023/05/11 10:19:59;;;;;;;5.50;4.70;;;13.00;99.90;;;;;;5035379;28;20181;-81
2023/05/11 10:22:27;;;;;;;5.13;4.63;;;13.00;99.90;;;;;;5036310;28;20378;-80
2023/05/11 10:24:57;;;;;;;4.67;4.37;;;12.90;99.90;;;;;;5039632;28;20173;-81
2023/05/11 10:27:23;;;;;;;6.80;4.73;;;12.90;99.90;;;;;;5052416;28;20177;-82
2023/05/11 10:29:50;;;;;;;5.77;5.17;;;12.90;99.90;;;;;;5053174;28;20179;-82
2023/05/11 10:32:17;;;;;;;6.43;5.00;;;12.80;99.90;;;;;;5046821;28;20184;-80
2023/05/11 10:34:45;;;;;;;5.43;4.93;;;12.80;99.90;;;;;;5037885;28;20208;-79
2023/05/11 10:37:13;;;;;;;7.83;6.13;;;12.80;99.90;;;;;;5036834;28;20176;-79
2023/05/11 10:39:39;;;;;;;7.50;6.00;;;12.60;99.90;;;;;;5035955;28;20250;-79
2023/05/11 10:42:21;;;;;;;6.40;5.80;;;12.50;99.90;;;;;;5039879;28;20187;-79
2023/05/11 10:45:17;;;;;;;7.70;6.30;;;12.50;99.90;;;;;;5040267;28;20156;-80
2023/05/11 10:47:53;;;;;;;6.20;5.60;;;12.50;99.90;;;;;;5037800;28;20624;-79
2023/05/11 10:50:57;;;;;;;6.40;5.73;;;12.50;99.90;;;;;;5044945;28;20244;-82
2023/05/11 10:53:47;;;;;;;6.97;5.93;;;12.50;99.90;;;;;;5019002;28;20271;-81
2023/05/11 10:56:15;;;;;;;9.40;6.50;;;12.60;99.90;;;;;;5034521;28;20653;-79
2023/05/11 10:59:26;;;;;;;7.90;5.63;;;12.60;99.90;;;;;;5034555;28;20176;-81
2023/05/11 11:01:53;;;;;;;7.63;6.13;;;12.60;99.90;;;;;;5034661;28;20164;-82
2023/05/11 11:04:20;;;;;;;6.90;6.10;;;12.60;99.90;;;;;;5034638;28;20545;-80
2023/05/11 11:06:46;;;;;;;8.53;6.73;;;12.70;99.90;;;;;;5035122;28;20237;-81
2023/05/11 11:09:14;;;;;;;20.20;9.93;;;12.90;99.90;;;;;;5034403;28;20177;-82
2023/05/11 11:11:45;;;;;;;238.27;51.97;;;13.10;99.90;;;;;;5034165;28;20183;-80
2023/05/11 11:14:15;;;;;;;93.93;37.30;;;13.10;99.90;;;;;;5034077;28;20593;-82
2023/05/11 11:17:01;;;;;;;12.17;8.70;;;13.10;99.90;;;;;;5034870;28;20222;-83
2023/05/11 11:19:29;;;;;;;9.70;6.87;;;12.70;99.90;;;;;;5047844;28;20253;-82
2023/05/11 11:21:56;;;;;;;10.43;7.67;;;13.10;99.90;;;;;;5034846;28;20629;-81
2023/05/11 11:24:46;;;;;;;8.57;7.67;;;13.00;99.90;;;;;;5033542;28;20549;-81
2023/05/11 11:27:12;;;;;;;7.73;6.93;;;12.90;99.90;;;;;;5028839;28;20196;-82
2023/05/11 11:29:39;;;;;;;7.63;6.93;;;13.00;99.90;;;;;;5035756;28;20651;-81
2023/05/11 11:32:23;;;;;;;16.07;9.87;;;12.90;99.90;;;;;;5038054;28;20180;-81
2023/05/11 11:34:51;;;;;;;8.63;7.60;;;13.10;99.90;;;;;;5034387;28;20204;-81
2023/05/11 11:37:17;;;;;;;10.10;7.67;;;13.30;99.90;;;;;;5032567;28;20191;-81
2023/05/11 11:39:43;;;;;;;9.03;8.13;;;13.40;99.90;;;;;;5038795;28;20251;-81
2023/05/11 11:42:17;;;;;;;10.60;8.50;;;13.30;99.90;;;;;;5033816;28;20315;-81
2023/05/11 11:44:44;;;;;;;9.97;7.73;;;13.10;99.90;;;;;;5033885;28;20163;-82
2023/05/11 11:47:13;;;;;;;10.60;7.67;;;13.20;99.90;;;;;;5031430;28;20183;-83
2023/05/11 11:49:41;;;;;;;9.67;7.70;;;12.90;99.90;;;;;;5033859;28;20173;-83
2023/05/11 11:52:12;;;;;;;8.57;7.67;;;12.80;99.90;;;;;;5033879;28;20394;-84
2023/05/11 11:54:47;;;;;;;7.60;6.90;;;12.90;99.90;;;;;;5034130;28;20204;-81
2023/05/11 11:57:34;;;;;;;7.43;6.73;;;12.80;99.90;;;;;;5033815;28;20164;-80
2023/05/11 12:00:05;;;;;;;10.87;7.50;;;12.90;99.90;;;;;;5034188;28;20230;-80
2023/05/11 12:02:32;;;;;;;9.33;7.73;;;12.90;99.90;;;;;;5034440;28;20694;-78
2023/05/11 12:05:20;;;;;;;8.00;6.50;;;12.90;99.90;;;;;;5033717;28;20235;-79
2023/05/11 12:07:48;;;;;;;9.40;6.77;;;13.00;99.90;;;;;;5035976;28;20227;-81
2023/05/11 12:10:16;;;;;;;7.57;6.60;;;13.10;99.90;;;;;;5042396;28;20184;-81
2023/05/11 12:12:46;;;;;;;7.03;6.33;;;13.10;99.90;;;;;;5037017;28;20176;-79
2023/05/11 12:15:26;;;;;;;8.23;6.20;;;13.20;99.90;;;;;;5034155;28;20196;-81
2023/05/11 12:17:51;;;;;;;6.63;5.93;;;13.20;99.90;;;;;;5033931;28;20183;-81
2023/05/11 12:20:19;;;;;;;7.07;5.83;;;13.30;99.90;;;;;;5037448;28;20193;-79
2023/05/11 12:22:48;;;;;;;5.97;5.47;;;13.40;99.90;;;;;;5049316;28;20165;-81
2023/05/11 12:25:18;;;;;;;5.80;5.27;;;13.40;99.90;;;;;;5048436;28;20676;-81
2023/05/11 12:27:56;;;;;;;5.63;5.13;;;13.60;99.90;;;;;;5035642;28;20555;-79
2023/05/11 12:30:24;;;;;;;5.67;5.17;;;13.50;99.90;;;;;;5035494;28;20203;-80
2023/05/11 12:32:54;;;;;;;6.00;5.40;;;13.40;99.90;;;;;;5033901;28;20188;-81
2023/05/11 12:35:24;;;;;;;5.63;5.20;;;13.40;99.90;;;;;;5033168;28;20220;-80
2023/05/11 12:37:51;;;;;;;7.30;5.83;;;13.30;99.90;;;;;;5032762;28;20640;-81
2023/05/11 12:40:17;;;;;;;8.00;5.60;;;13.10;99.90;;;;;;5033182;28;20182;-80
2023/05/11 12:42:50;;;;;;;5.87;5.27;;;13.20;99.90;;;;;;5032707;28;20173;-80
2023/05/11 12:45:18;;;;;;;5.73;5.23;;;13.20;99.90;;;;;;5032953;28;20179;-81
2023/05/11 12:47:45;;;;;;;5.93;5.40;;;13.00;99.90;;;;;;5032811;28;20533;-80
2023/05/11 12:50:11;;;;;;;6.37;5.77;;;13.00;99.90;;;;;;5033125;28;20698;-80
2023/05/11 12:52:38;;;;;;;6.23;5.67;;;12.80;99.90;;;;;;5032820;28;20217;-80